KLAL/LAL METAR and TAF weather

Enter ICAO airport designator
Station Type Date Time Source
KLAL METAR 2020/11/28 19:50 UTC NOAA

KLAL 281950Z 29009KT 10SM SCT050 27/15 A3000


Station Type Date Time Source
KLAL Decoded METAR 2020/11/28 19:50 UTC NOAA

Lakeland Regional, FL, United States (KLAL) 27-59N 082-01W
Nov 28, 2020 - 02:50 PM EST / 2020.11.28 1950 UTC
Wind: from the WNW (290 degrees) at 10 MPH (9 KT):0
Visibility: 10 mile(s):0
Sky conditions: partly cloudy
Temperature: 80 F (27 C)
Dew Point: 59 F (15 C)
Relative Humidity: 47%
Pressure (altimeter): 30 in. Hg (1015 hPa)
ob: KLAL 281950Z 29009KT 10SM SCT050 27/15 A3000
cycle: 20

Station Type Date Time Source
KLAL TAF 2020/11/28 18:45 UTC NOAA

TAF KLAL 281743Z 2818/2918 23006KT P6SM SCT040 SCT120 BKN250
FM282000 28006KT P6SM SCT050 SCT120 BKN250
FM290100 VRB03KT P6SM SCT100 SCT250
FM290900 00000KT 5SM BR VCFG SCT005 BKN250
FM291400 16006KT P6SM FEW015 SCT120 BKN250

Example: see airport list